Latest Weather Observations for Mount Crawford

IDS60901

Issued at 3:51 am CDT Friday 19 December 2014 (issued every 10 minutes, with the page automatically refreshed every 10 minutes)

About weather observations | Map of Adelaide area stations | Latest observations for Adelaide area | Other Formats
Station Details ID: 023878 Name: MT CRAWFORD AWS Lat: -34.73 Lon: 138.93 Height: 525.0 m
Data from the previous 72 hours. | See also: Recent months at Mount Crawford
Date/Time
CDT
Tmp

°C
App
Tmp
°C
Dew
Point
°C
Rel
Hum
%
Delta-T

°C
Wind Press
QNH
hPa
Press
MSL
hPa
Rain
since
9 am
mm
Dir
 
Spd
km/h
Gust
km/h
Spd
kts
Gust
kts
19/03:30am 9.5 4.9 6.4 81 1.5 SSW 20 26 11 14 1017.2 1015.4 0.0
19/03:00am 9.4 5.4 6.5 82 1.4 SSW 17 20 9 11 1017.2 1015.4 0.0
19/02:30am 9.1 5.4 6.5 84 1.2 SSW 15 19 8 10 1017.5 1015.7 0.0
19/02:00am 9.1 5.2 6.9 86 1.1 SSW 17 20 9 11 1017.4 1015.6 0.0
19/01:30am 9.5 5.6 7.1 85 1.2 SSW 17 20 9 11 1017.5 1015.7 0.0
19/01:00am 9.8 5.3 6.9 82 1.4 SSW 20 24 11 13 1017.3 1015.5 0.0
19/12:30am 10.0 5.7 6.9 81 1.5 SSW 19 22 10 12 1017.4 1015.6 0.0
19/12:00am 10.0 5.9 6.2 77 1.8 SSW 17 24 9 13 1017.5 1015.7 0.0
 
Date/Time
CDT
Tmp

°C
App
Tmp
°C
Dew
Point
°C
Rel
Hum
%
Delta-T

°C
Wind Press
QNH
hPa
Press
MSL
hPa
Rain
since
9 am
mm
Dir
 
Spd
km/h
Gust
km/h
Spd
kts
Gust
kts
18/11:30pm 10.2 5.9 5.4 72 2.3 SSW 17 24 9 13 1017.4 1015.6 0.0
18/11:00pm 10.9 5.6 5.2 68 2.7 S 22 28 12 15 1016.9 1015.2 0.0
18/10:30pm 11.1 6.3 5.4 68 2.7 S 20 26 11 14 1016.6 1014.9 0.0
18/10:00pm 11.6 7.2 6.7 72 2.4 S 19 22 10 12 1016.6 1014.9 0.0
18/09:30pm 12.2 9.1 7.3 72 2.4 S 13 17 7 9 1016.3 1014.6 0.0
18/09:00pm 13.1 9.9 6.9 66 3.1 WSW 13 17 7 9 1016.0 1014.2 0.0
18/08:30pm 13.8 11.0 7.1 64 3.4 WSW 11 17 6 9 1015.7 1013.9 0.0
18/08:00pm 14.6 10.8 7.4 62 3.6 WSW 17 22 9 12 1015.4 1013.6 0.0
18/07:30pm 15.6 11.6 8.1 61 3.9 WSW 19 30 10 16 1014.9 1013.2 0.0
18/07:00pm 16.8 12.5 8.0 56 4.6 WSW 20 35 11 19 1014.5 1012.8 0.0
18/06:30pm 18.1 12.9 7.2 49 5.6 WSW 24 41 13 22 1014.2 1012.4 0.0
18/06:00pm 18.0 12.3 6.5 47 5.9 WSW 26 41 14 22 1013.9 1012.1 0.0
18/05:30pm 18.4 13.4 8.1 51 5.4 SW 24 37 13 20 1013.5 1011.7 0.0
18/05:01pm 18.7 11.8 6.5 45 6.2 WSW 32 50 17 27 1012.9 1011.2 0.0
18/05:00pm 19.1 12.2 6.6 44 6.4 WSW 32 46 17 25 1012.9 1011.2 0.0
18/04:44pm 19.9 13.7 6.3 41 7.0 WSW 28 50 15 27 1012.8 1011.1 0.0
18/04:30pm 19.7 14.0 6.8 43 6.7 WSW 26 39 14 21 1012.9 1011.2 0.0
18/04:02pm 17.2 10.3 6.4 49 5.5 WSW 32 50 17 27 1012.8 1011.1 0.0
18/04:00pm 17.8 10.8 6.7 48 5.7 WSW 33 50 18 27 1012.9 1011.2 0.0
18/03:38pm 19.6 13.2 7.0 44 6.5 WSW 30 48 16 26 1012.7 1011.0 0.0
18/03:30pm 18.8 12.0 6.9 46 6.1 WSW 32 46 17 25 1012.7 1011.0 0.0
18/03:01pm 18.4 12.5 7.5 49 5.7 WSW 28 46 15 25 1012.6 1010.8 0.0
18/03:00pm 17.9 11.5 7.0 49 5.6 WSW 30 46 16 25 1012.5 1010.7 0.0
18/02:30pm 17.8 11.4 8.4 54 5.0 WSW 32 50 17 27 1012.4 1010.6 0.0
18/02:00pm 17.1 12.2 11.4 69 3.2 W 28 46 15 25 1012.5 1010.7 0.0
18/01:30pm 17.8 12.0 9.4 58 4.5 W 30 54 16 29 1012.1 1010.3 0.0
18/01:00pm 16.1 10.2 10.6 70 3.0 W 32 50 17 27 1012.4 1010.6 0.0
18/12:58pm 15.7 9.8 10.5 71 2.8 W 32 50 17 27 1012.4 1010.6 0.0
18/12:30pm 13.9 8.9 10.9 82 1.6 W 28 44 15 24 1012.5 1010.7 0.0
18/12:00pm 15.9 9.8 9.6 66 3.4 W 32 52 17 28 1012.2 1010.4 0.0
18/11:55am 15.6 9.2 9.3 66 3.3 W 33 52 18 28 1012.0 1010.2 0.0
18/11:30am 16.0 9.9 9.7 66 3.4 W 32 44 17 24 1011.7 1009.9 0.0
18/11:00am 15.5 9.5 8.5 63 3.6 W 30 48 16 26 1011.6 1009.8 0.0
18/10:51am 16.7 10.6 8.4 58 4.4 WSW 30 48 16 26 1011.8 1010.0 0.0
18/10:30am 15.5 9.6 9.0 65 3.4 W 30 44 16 24 1011.6 1009.8 0.0
18/10:02am 15.8 9.1 8.3 61 3.9 W 33 52 18 28 1011.3 1009.5 0.0
18/10:00am 15.4 8.8 8.4 63 3.6 W 33 46 18 25 1011.3 1009.5 0.0
18/09:30am 15.5 8.9 8.7 64 3.6 W 33 52 18 28 1011.1 1009.3 0.0
18/09:00am 14.4 8.6 9.4 72 2.6 W 30 43 16 23 1010.8 1009.0 0.0
18/08:32am 13.5 8.1 9.4 76 2.2 W 28 46 15 25 1010.4 1008.6 0.0
18/08:30am 13.6 8.6 9.5 76 2.2 W 26 39 14 21 1010.5 1008.7 0.0
18/08:00am 12.8 8.1 9.3 79 1.8 W 24 32 13 17 1010.4 1008.6 0.0
18/07:30am 10.9 7.0 8.7 86 1.1 W 19 26 10 14 1010.2 1008.4 0.0
18/07:00am 10.7 6.3 8.8 88 1.0 W 22 30 12 16 1009.8 1008.0 0.0
18/06:30am 10.4 6.0 8.8 90 0.8 W 22 33 12 18 1009.4 1007.6 0.0
18/06:00am 10.2 6.1 8.8 91 0.7 WNW 20 24 11 13 1009.2 1007.3 0.0
18/05:30am 10.4 6.5 8.8 90 0.8 WNW 19 26 10 14 1008.7 1006.9 0.0
18/05:00am 10.9 7.1 9.0 88 1.0 WNW 19 28 10 15 1008.6 1006.8 0.0
18/04:30am 11.2 7.5 9.3 88 1.0 WNW 19 24 10 13 1008.3 1006.5 0.0
18/04:00am 11.1 7.8 9.5 90 0.8 W 17 20 9 11 1008.2 1006.4 0.0
18/03:30am 11.0 7.6 9.3 89 0.9 W 17 20 9 11 1008.1 1006.3 0.0
18/03:00am 11.2 8.7 9.6 90 0.8 WNW 13 17 7 9 1007.9 1006.1 0.0
18/02:30am 10.7 8.3 8.6 87 1.1 W 11 13 6 7 1008.1 1006.3 0.0
18/02:00am 11.0 8.2 8.4 84 1.3 WSW 13 17 7 9 1008.2 1006.4 0.0
18/01:30am 11.3 8.9 8.5 83 1.4 WSW 11 17 6 9 1008.2 1006.4 0.0
18/01:00am 11.1 8.2 8.0 81 1.6 SW 13 17 7 9 1008.4 1006.6 0.0
18/12:30am 11.0 8.8 8.0 82 1.5 SSW 9 11 5 6 1008.7 1006.9 0.0
18/12:00am 11.5 9.0 8.0 79 1.8 SW 11 15 6 8 1009.1 1007.2 0.0
 
Date/Time
CDT
Tmp

°C
App
Tmp
°C
Dew
Point
°C
Rel
Hum
%
Delta-T

°C
Wind Press
QNH
hPa
Press
MSL
hPa
Rain
since
9 am
mm
Dir
 
Spd
km/h
Gust
km/h
Spd
kts
Gust
kts
17/11:30pm 11.4 9.1 7.3 76 2.0 SW 9 13 5 7 1009.2 1007.3 0.0
17/11:00pm 12.4 9.8 7.7 73 2.4 SSE 11 13 6 7 1009.1 1007.2 0.0
17/10:30pm 13.0 10.4 5.9 62 3.5 SSE 9 13 5 7 1009.1 1007.2 0.0
17/10:00pm 14.1 10.8 2.4 45 5.3 WSW 9 13 5 7 1008.8 1007.0 0.0
17/09:30pm 14.1 10.8 2.4 45 5.3 W 9 13 5 7 1008.9 1007.1 0.0
17/09:00pm 14.9 11.5 2.1 42 5.8 WSW 9 11 5 6 1008.6 1006.8 0.0
17/08:30pm 15.6 12.2 2.1 40 6.2 WSW 9 11 5 6 1008.3 1006.5 0.0
17/08:00pm 17.4 14.1 2.2 36 7.1 W 9 11 5 6 1008.1 1006.3 0.0
17/07:30pm 18.5 15.2 2.4 34 7.6 WSW 9 11 5 6 1007.9 1006.1 0.0
17/07:00pm 18.5 14.0 2.4 34 7.6 WSW 15 22 8 12 1007.9 1006.1 0.0
17/06:30pm 18.6 13.1 2.0 33 7.8 W 20 28 11 15 1008.0 1006.2 0.0
17/06:00pm 19.0 14.2 2.8 34 7.7 W 17 24 9 13 1007.9 1006.1 0.0
17/05:30pm 19.9 14.7 2.7 32 8.3 W 19 28 10 15 1008.0 1006.2 0.0
17/05:00pm 19.5 13.7 2.4 32 8.1 W 22 32 12 17 1008.2 1006.4 0.0
17/04:30pm 19.5 14.0 1.9 31 8.3 W 20 32 11 17 1008.6 1006.8 0.0
17/04:00pm 18.7 12.7 0.8 30 8.2 W 22 35 12 19 1008.7 1006.9 0.0
17/03:30pm 19.4 14.0 1.4 30 8.4 W 19 32 10 17 1008.8 1007.0 0.0
17/03:00pm 19.0 13.1 2.0 32 8.0 W 22 37 12 20 1008.9 1007.1 0.0
17/02:46pm 18.8 11.9 2.6 34 7.7 W 28 41 15 22 1008.9 1007.1 0.0
17/02:30pm 18.3 12.6 3.0 36 7.3 WSW 22 37 12 20 1009.2 1007.3 0.0
17/02:00pm 18.6 13.5 3.3 36 7.3 WSW 19 30 10 16 1009.3 1007.4 0.0
17/01:30pm 19.3 15.0 3.5 35 7.7 SW 15 24 8 13 1009.5 1007.7 0.0
17/01:00pm 17.6 12.7 3.9 40 6.6 W 19 33 10 18 1009.8 1008.0 0.0
17/12:30pm 17.5 14.1 4.1 41 6.5 W 11 24 6 13 1010.1 1008.3 0.0
17/12:00pm 16.1 11.7 4.5 46 5.6 W 17 28 9 15 1010.2 1008.4 0.0
17/11:30am 16.5 13.7 5.2 47 5.6 NW 9 15 5 8 1010.5 1008.7 0.0
17/11:00am 15.2 11.3 5.4 52 4.8 SSW 15 22 8 12 1010.6 1008.8 0.0
17/10:30am 14.5 10.5 4.8 52 4.7 W 15 24 8 13 1010.9 1009.1 0.0
17/10:00am 13.8 10.5 4.7 54 4.3 W 11 22 6 12 1011.3 1009.5 0.0
17/09:30am 13.7 11.5 5.3 57 4.1 WNW 6 15 3 8 1011.3 1009.5 0.0
17/09:00am 12.6 11.1 4.8 59 3.7 NNE 2 9 1 5 1011.5 1009.7 0.0
17/08:30am 11.9 9.7 6.2 68 2.8 ESE 7 9 4 5 1011.4 1009.6 0.0
17/08:00am 11.4 9.4 6.9 74 2.2 ESE 7 9 4 5 1011.3 1009.5 0.0
17/07:30am 11.0 8.9 6.7 75 2.1 SE 7 9 4 5 1011.1 1009.3 0.0
17/07:00am 11.2 9.2 7.1 76 2.0 SE 7 9 4 5 1010.8 1009.0 0.0
17/06:30am 9.8 7.0 6.9 82 1.4 SE 11 15 6 8 1010.4 1008.6 0.0
17/06:00am 9.2 5.6 6.6 84 1.2 SSE 15 17 8 9 1009.9 1008.1 0.0
17/05:30am 9.1 5.5 6.7 85 1.2 SSE 15 19 8 10 1009.5 1007.7 0.0
17/05:00am 8.1 5.4 5.7 85 1.1 ESE 9 13 5 7 1009.2 1007.3 0.0
17/04:30am 8.5 5.9 6.0 84 1.2 SSE 9 15 5 8 1009.1 1007.2 0.0
17/04:00am 9.0 4.5 6.1 82 1.4 SSW 19 24 10 13 1008.6 1006.8 0.0
17/03:30am 8.9 4.2 6.0 82 1.4 S 20 24 11 13 1008.4 1006.6 0.0
17/03:00am 9.0 4.8 5.9 81 1.5 S 17 22 9 12 1008.4 1006.6 0.0
17/02:30am 9.1 5.3 6.0 81 1.5 S 15 20 8 11 1008.4 1006.6 0.0
17/02:00am 9.4 5.3 6.1 80 1.6 SSW 17 20 9 11 1008.7 1006.9 0.0
17/01:30am 9.3 5.5 5.9 79 1.6 SSW 15 20 8 11 1008.8 1007.0 0.0
17/01:00am 9.1 5.2 5.3 77 1.8 SSW 15 19 8 10 1009.1 1007.2 0.0
17/12:30am 9.6 6.0 5.0 73 2.1 SSW 13 17 7 9 1009.4 1007.6 0.0
17/12:00am 10.1 5.7 4.7 69 2.5 SSW 17 20 9 11 1009.4 1007.6 0.0
 
Date/Time
CDT
Tmp

°C
App
Tmp
°C
Dew
Point
°C
Rel
Hum
%
Delta-T

°C
Wind Press
QNH
hPa
Press
MSL
hPa
Rain
since
9 am
mm
Dir
 
Spd
km/h
Gust
km/h
Spd
kts
Gust
kts
16/11:30pm 10.6 6.5 4.3 65 2.9 SSW 15 20 8 11 1009.4 1007.6 0.0
16/11:00pm 11.3 6.5 5.4 67 2.8 SSW 20 28 11 15 1009.2 1007.3 0.0
16/10:30pm 11.6 8.2 6.1 69 2.7 SW 13 22 7 12 1009.2 1007.3 0.0
16/10:00pm 12.0 8.8 6.7 70 2.6 WSW 13 19 7 10 1009.1 1007.2 0.0
16/09:30pm 12.2 8.8 7.5 73 2.4 SW 15 26 8 14 1008.8 1007.0 0.0
16/09:00pm 12.6 7.6 8.1 74 2.3 WSW 24 35 13 19 1008.5 1006.7 0.0
16/08:30pm 13.0 8.9 7.9 71 2.6 WSW 19 30 10 16 1008.2 1006.4 0.0
16/08:00pm 13.3 8.4 7.1 66 3.1 WSW 22 33 12 18 1007.8 1006.0 0.0
16/07:30pm 14.7 9.0 6.5 58 4.1 SW 26 37 14 20 1007.4 1005.5 0.0
16/07:14pm 15.0 8.9 6.8 58 4.1 WSW 28 46 15 25 1007.0 1005.1 0.0
16/07:00pm 15.0 9.0 7.1 59 4.0 WSW 28 43 15 23 1006.7 1004.9 0.0
16/06:30pm 16.0 9.1 4.7 47 5.5 WSW 30 54 16 29 1006.0 1004.2 0.0
16/06:00pm 17.1 8.3 1.5 35 7.2 WSW 37 57 20 31 1005.5 1003.6 0.0
16/05:30pm 17.3 7.3 0.9 33 7.5 WSW 43 65 23 35 1005.1 1003.2 0.0
16/05:00pm 17.5 8.0 3.8 40 6.6 WSW 43 69 23 37 1005.0 1003.1 0.0
16/04:30pm 17.8 9.1 6.0 46 6.0 W 41 67 22 36 1005.0 1003.1 0.0
16/04:00pm 17.2 9.5 8.6 57 4.5 WSW 39 65 21 35 1004.7 1002.9 0.0
16/03:30pm 17.7 9.2 8.6 55 4.8 W 43 69 23 37 1004.4 1002.6 0.0
16/03:00pm 18.4 10.2 8.4 52 5.3 W 41 61 22 33 1004.2 1002.3 0.0
16/02:30pm 18.4 10.2 10.5 60 4.4 WSW 44 65 24 35 1003.6 1001.7 0.0
16/02:00pm 17.6 9.5 12.1 70 3.1 WSW 46 74 25 40 1003.4 1001.5 0.0
16/01:30pm 19.1 9.4 11.9 63 4.1 W 54 76 29 41 1002.7 1000.9 0.0
16/01:00pm 18.8 10.4 11.1 61 4.3 W 46 69 25 37 1002.7 1000.9 0.0
16/12:30pm 19.4 10.7 11.2 59 4.6 W 48 72 26 39 1002.7 1000.9 0.0
16/12:02pm 19.1 10.4 10.1 56 4.9 W 46 67 25 36 1002.5 1000.6 0.0
16/12:00pm 19.4 11.3 10.7 57 4.9 W 44 61 24 33 1002.6 1000.8 0.0
16/11:30am 19.0 10.3 10.0 56 5.0 W 46 65 25 35 1002.2 1000.3 0.0
16/11:04am 18.9 9.8 8.6 51 5.5 W 46 67 25 36 1002.4 1000.5 0.0
16/11:00am 18.8 9.8 9.0 53 5.3 W 46 63 25 34 1002.2 1000.3 0.0
16/10:36am 18.1 8.9 11.0 63 3.9 W 50 70 27 38 1002.2 1000.3 0.0
16/10:30am 17.8 8.6 10.9 64 3.8 W 50 67 27 36 1002.3 1000.4 0.0
16/10:03am 17.5 10.6 11.5 68 3.4 W 39 57 21 31 1002.3 1000.4 0.0
16/10:00am 17.1 10.6 11.6 70 3.1 W 37 54 20 29 1002.2 1000.3 0.0
16/09:30am 16.6 10.9 12.9 79 2.1 W 35 56 19 30 1002.8 1001.0 0.0
16/09:18am 16.3 10.0 12.3 77 2.3 W 37 61 20 33 1002.6 1000.8 0.0
16/09:00am 16.0 9.7 12.2 78 2.1 WNW 37 52 20 28 1002.6 1000.8 0.0
16/08:30am 15.0 10.8 12.3 84 1.5 WNW 26 37 14 20 1002.1 1000.2 0.0
16/08:00am 13.3 10.1 13.0 98 0.2 WNW 22 33 12 18 1002.0 1000.1 0.0
16/07:30am 12.5 9.0 12.3 99 0.1 NW 22 30 12 16 1001.9 1000.0 0.0
16/07:00am 11.9 8.3 11.9 100 0.0 NW 22 32 12 17 1001.3 999.4 0.0
16/06:30am 11.7 8.4 11.7 100 0.0 NW 20 30 11 16 1000.7 998.8 0.0
16/06:00am 11.8 9.1 11.8 100 0.0 WNW 17 24 9 13 1000.3 998.4 0.0
16/05:30am 11.6 8.3 11.6 100 0.0 NNW 20 26 11 14 1000.2 998.3 0.0
16/05:00am 11.8 8.8 11.8 100 0.0 NW 19 28 10 15 1001.0 999.0 0.0
16/04:30am 11.7 8.6 11.5 99 0.1 NW 19 28 10 15 1001.1 999.2 0.0
16/04:00am 11.4 8.6 11.2 99 0.1 NW 17 24 9 13 1001.3 999.4 0.0

Latest Capital City Observations: Canberra | Sydney | Melbourne | Brisbane | Adelaide | Perth | Hobart | Darwin

Other Formats:

Comma delimited format used in spreadsheet applications
http://www.bom.gov.au/fwo/IDS60901/IDS60901.94678.axf

JavaScript Object Notation format (JSON) in row-major order
http://www.bom.gov.au/fwo/IDS60901/IDS60901.94678.json